Reynoldsburg, Illinois
Current Conditions -  °F | °C
As of 4:52 PM on Tuesday 21 Oct 2014 (Local Time) from KMWA Reporting Station
Clear Clear  
Wind Chill: 66°   Ceiling: Unl
Heat Index: 66°   Visibility: 20mi
Dew Point: 45°   Wind: 12mph
Humidity: 46%   Direction: 10°N
Pressure: 30.1"   Gusts: NA
Location:  37.5342°N, 88.7644°W
Report Text: KMWA 212152Z 01010KT 20SM SKC 19/07 A3010
Loading
Personal Weather Stations






























Interactive Weather Map
Tropical Storm Tracking
New forecast layout! Learn more

10-Day Weather Forecast

Advertisements
Track Severe Weather on mobile